createdAt,value
2023-05-06T00:00:40.856Z,86.02
2023-05-06T00:01:43.016Z,86.06
2023-05-06T00:02:40.323Z,86.13
2023-05-06T00:03:40.154Z,86.22
2023-05-06T00:04:39.522Z,86.31
2023-05-06T00:05:39.892Z,86.34
2023-05-06T00:06:40.011Z,86.30
2023-05-06T00:07:44.647Z,86.24
2023-05-06T00:08:39.819Z,86.18
2023-05-06T00:09:39.694Z,86.15
2023-05-06T00:10:39.736Z,86.14
2023-05-06T00:11:39.645Z,86.18
2023-05-06T00:12:39.935Z,86.19
2023-05-06T00:13:40.255Z,86.27
2023-05-06T00:14:39.464Z,86.36
2023-05-06T00:15:40.131Z,86.37
2023-05-06T00:16:40.001Z,86.38
2023-05-06T00:17:39.837Z,86.41
2023-05-06T00:18:40.075Z,86.46
2023-05-06T00:19:39.657Z,86.5
2023-05-06T00:20:39.884Z,86.45
2023-05-06T00:21:53.903Z,86.46
2023-05-06T00:22:40.182Z,86.53
2023-05-06T00:23:39.413Z,86.54
2023-05-06T00:24:39.910Z,86.44
2023-05-06T00:25:39.716Z,86.44
2023-05-06T00:26:39.720Z,86.46
2023-05-06T00:27:39.515Z,86.52
2023-05-06T00:28:39.684Z,86.52
2023-05-06T00:29:39.531Z,86.55
2023-05-06T00:30:40.252Z,86.57
2023-05-06T00:31:39.558Z,86.58
2023-05-06T00:32:39.653Z,86.61
2023-05-06T00:33:39.612Z,86.64
2023-05-06T00:34:39.539Z,86.68
2023-05-06T00:35:40.045Z,86.67
2023-05-06T00:36:39.380Z,86.65
2023-05-06T00:37:39.485Z,86.58
2023-05-06T00:38:39.461Z,86.60
2023-05-06T00:39:39.993Z,86.58
2023-05-06T00:40:39.614Z,86.69
2023-05-06T00:41:39.201Z,86.73
2023-05-06T00:42:39.628Z,86.76
2023-05-06T00:43:39.162Z,86.72
2023-05-06T00:44:39.802Z,86.69
2023-05-06T00:45:40.693Z,86.72
2023-05-06T00:46:39.864Z,86.75
2023-05-06T00:47:40.346Z,86.73
2023-05-06T00:48:39.561Z,86.78
2023-05-06T00:49:39.989Z,86.79
2023-05-06T00:50:39.760Z,86.72
2023-05-06T00:51:40.357Z,86.69
2023-05-06T00:52:39.918Z,86.67
2023-05-06T00:53:39.781Z,86.61
2023-05-06T00:54:39.927Z,86.59
2023-05-06T00:55:40.221Z,86.56
2023-05-06T00:56:39.737Z,86.49
2023-05-06T00:57:39.916Z,86.38
2023-05-06T00:58:40.096Z,86.28
2023-05-06T00:59:39.571Z,86.06
2023-05-06T01:00:40.687Z,86.01
2023-05-06T01:01:39.719Z,86.06
2023-05-06T01:02:51.979Z,86.10
2023-05-06T01:03:39.588Z,86.13
2023-05-06T01:04:39.856Z,86
2023-05-06T01:05:40.124Z,85.94
2023-05-06T01:06:39.400Z,85.85
2023-05-06T01:07:39.458Z,85.71
2023-05-06T01:08:39.408Z,85.68
2023-05-06T01:09:39.551Z,85.72
2023-05-06T01:10:39.736Z,85.62
2023-05-06T01:11:39.688Z,85.63
2023-05-06T01:12:40.057Z,85.63
2023-05-06T01:13:39.898Z,85.54
2023-05-06T01:14:40.140Z,85.46
2023-05-06T01:15:39.909Z,85.43
2023-05-06T01:16:40.387Z,85.43
2023-05-06T01:17:40.181Z,85.35
2023-05-06T01:18:39.965Z,85.38
2023-05-06T01:19:40.667Z,85.37
2023-05-06T01:20:40.272Z,85.41
2023-05-06T01:21:39.126Z,85.44
2023-05-06T01:22:39.244Z,85.49
2023-05-06T01:23:39.229Z,85.46
2023-05-06T01:24:39.365Z,85.48
2023-05-06T01:25:39.559Z,85.50
2023-05-06T01:26:39.476Z,85.40
2023-05-06T01:27:39.456Z,85.39
2023-05-06T01:28:39.373Z,85.40
2023-05-06T01:29:39.367Z,85.34
2023-05-06T01:30:39.391Z,85.33
2023-05-06T01:31:39.536Z,85.33
2023-05-06T01:32:39.939Z,85.44
2023-05-06T01:33:39.418Z,85.41
2023-05-06T01:34:39.206Z,85.35
2023-05-06T01:35:39.208Z,85.35
2023-05-06T01:36:39.000Z,85.38
2023-05-06T01:37:39.229Z,85.50
2023-05-06T01:38:39.123Z,85.55
2023-05-06T01:39:38.824Z,85.54
2023-05-06T01:40:39.477Z,85.55
2023-05-06T01:41:38.850Z,85.49
2023-05-06T01:42:39.416Z,85.48
2023-05-06T01:43:39.221Z,85.45
2023-05-06T01:44:39.530Z,85.45
2023-05-06T01:45:39.591Z,85.47
2023-05-06T01:46:39.350Z,85.43
2023-05-06T01:47:39.148Z,85.40
2023-05-06T01:48:39.390Z,85.34
2023-05-06T01:49:39.310Z,85.36
2023-05-06T01:50:39.555Z,85.34
2023-05-06T01:51:39.252Z,85.36
2023-05-06T01:52:39.244Z,85.41
2023-05-06T01:53:38.836Z,85.34
2023-05-06T01:54:39.309Z,85.37
2023-05-06T01:55:39.296Z,85.39
2023-05-06T01:56:38.895Z,85.34
2023-05-06T01:57:39.627Z,85.32
2023-05-06T01:58:38.980Z,85.21
2023-05-06T01:59:38.847Z,85.27
2023-05-06T02:00:40.328Z,85.35
2023-05-06T02:01:39.345Z,85.45
2023-05-06T02:02:39.805Z,85.42
2023-05-06T02:03:40.036Z,85.38
2023-05-06T02:04:38.907Z,85.43
2023-05-06T02:05:38.902Z,85.41
2023-05-06T02:06:39.755Z,85.40
2023-05-06T02:07:39.253Z,85.43
2023-05-06T02:08:39.654Z,85.42
2023-05-06T02:09:39.752Z,85.43
2023-05-06T02:10:39.443Z,85.45
2023-05-06T02:11:39.670Z,85.36
2023-05-06T02:12:39.641Z,85.32
2023-05-06T02:13:39.786Z,85.41
2023-05-06T02:14:39.486Z,85.53
2023-05-06T02:15:39.493Z,85.54
2023-05-06T02:16:39.266Z,85.50
2023-05-06T02:17:39.112Z,85.46
2023-05-06T02:18:39.001Z,85.40
2023-05-06T02:19:38.779Z,85.45
2023-05-06T02:20:39.382Z,85.46
2023-05-06T02:21:39.166Z,85.49
2023-05-06T02:22:38.952Z,85.48
2023-05-06T02:23:39.489Z,85.50
2023-05-06T02:24:39.308Z,85.51
2023-05-06T02:25:39.396Z,85.46
2023-05-06T02:26:39.112Z,85.51
2023-05-06T02:27:39.092Z,85.48
2023-05-06T02:28:38.607Z,85.38
2023-05-06T02:29:39.180Z,85.33
2023-05-06T02:30:44.469Z,85.35
2023-05-06T02:31:39.223Z,85.34
2023-05-06T02:32:39.736Z,85.35
2023-05-06T02:33:39.405Z,85.38
2023-05-06T02:34:39.522Z,85.48
2023-05-06T02:35:39.325Z,85.48
2023-05-06T02:36:39.238Z,85.53
2023-05-06T02:37:39.518Z,85.53
2023-05-06T02:38:39.010Z,85.57
2023-05-06T02:39:39.063Z,85.57
2023-05-06T02:40:47.115Z,85.59
2023-05-06T02:41:38.862Z,85.46
2023-05-06T02:42:47.855Z,85.33
2023-05-06T02:43:39.338Z,85.33
2023-05-06T02:44:39.294Z,85.32
2023-05-06T02:45:39.647Z,85.34
2023-05-06T02:46:53.958Z,85.25
2023-05-06T02:47:39.445Z,85.22
2023-05-06T02:48:53.899Z,85.22
2023-05-06T02:49:39.817Z,85.21
2023-05-06T02:50:40.006Z,85.24
2023-05-06T02:51:39.018Z,85.27
2023-05-06T02:52:39.158Z,85.18
2023-05-06T02:53:39.687Z,85.17
2023-05-06T02:54:53.922Z,85.09
2023-05-06T02:55:40.095Z,85.07
2023-05-06T02:56:39.033Z,85.05
2023-05-06T02:57:39.172Z,85.05
2023-05-06T02:58:38.994Z,85.05
2023-05-06T02:59:39.367Z,85.01
2023-05-06T03:00:40.555Z,85.01
2023-05-06T03:01:39.577Z,85.00
2023-05-06T03:02:39.637Z,85.06
2023-05-06T03:03:39.853Z,85.06
2023-05-06T03:04:39.800Z,85.08
2023-05-06T03:05:39.799Z,85.17
2023-05-06T03:06:39.997Z,85.23
2023-05-06T03:07:38.772Z,85.32
2023-05-06T03:08:39.927Z,85.34
2023-05-06T03:09:39.904Z,85.33
2023-05-06T03:10:40.226Z,85.28
2023-05-06T03:11:39.488Z,85.30
2023-05-06T03:12:39.809Z,85.29
2023-05-06T03:13:39.531Z,85.26
2023-05-06T03:14:39.383Z,85.16
2023-05-06T03:15:39.681Z,85.17
2023-05-06T03:17:01.682Z,85.20
2023-05-06T03:17:39.501Z,85.20
2023-05-06T03:18:39.513Z,85.09
2023-05-06T03:19:39.156Z,85.01
2023-05-06T03:20:38.975Z,85.05
2023-05-06T03:21:38.919Z,85.17
2023-05-06T03:23:38.934Z,85.07
2023-05-06T03:24:39.820Z,84.97
2023-05-06T03:25:39.658Z,84.95
2023-05-06T03:26:39.491Z,84.94
2023-05-06T03:27:39.206Z,84.90
2023-05-06T03:28:39.320Z,84.96
2023-05-06T03:29:39.523Z,84.91
2023-05-06T03:30:39.677Z,84.96
2023-05-06T03:31:39.822Z,84.95
2023-05-06T03:32:39.734Z,84.94
2023-05-06T03:33:39.790Z,85.00
2023-05-06T03:34:39.550Z,85.04
2023-05-06T03:35:39.414Z,85.15
2023-05-06T03:36:39.279Z,85.17
2023-05-06T03:37:38.901Z,85.08
2023-05-06T03:38:39.647Z,85.02
2023-05-06T03:39:39.642Z,85.06
2023-05-06T03:40:39.846Z,85.02
2023-05-06T03:41:39.798Z,85.02
2023-05-06T03:42:39.882Z,85.04
2023-05-06T03:43:39.585Z,84.98
2023-05-06T03:44:39.464Z,84.91
2023-05-06T03:45:39.820Z,84.89
2023-05-06T03:46:39.796Z,84.90
2023-05-06T03:47:39.988Z,84.94
2023-05-06T03:48:39.239Z,84.93
2023-05-06T03:49:39.301Z,84.90
2023-05-06T03:50:39.349Z,84.88
2023-05-06T03:51:39.485Z,84.80
2023-05-06T03:52:39.787Z,84.69
2023-05-06T03:53:39.813Z,84.72
2023-05-06T03:54:40.112Z,84.81
2023-05-06T03:55:39.547Z,84.87
2023-05-06T03:56:39.573Z,84.88
2023-05-06T03:57:39.773Z,84.91
2023-05-06T03:58:39.595Z,84.98
2023-05-06T03:59:40.018Z,85.04
2023-05-06T04:00:40.517Z,85.04
2023-05-06T04:01:39.753Z,85.04
2023-05-06T04:02:40.530Z,85.01
2023-05-06T04:03:39.920Z,84.89
2023-05-06T04:04:39.580Z,84.89
2023-05-06T04:05:39.986Z,84.94
2023-05-06T04:06:39.528Z,84.87
2023-05-06T04:07:39.675Z,84.83
2023-05-06T04:08:39.641Z,84.79
2023-05-06T04:09:39.558Z,84.77
2023-05-06T04:10:39.785Z,84.83
2023-05-06T04:11:40.127Z,84.92
2023-05-06T04:12:39.725Z,84.89
2023-05-06T04:13:40.022Z,84.88
2023-05-06T04:14:39.385Z,84.97
2023-05-06T04:15:39.385Z,84.98
2023-05-06T04:16:39.496Z,84.91
2023-05-06T04:17:39.816Z,84.89
2023-05-06T04:18:39.980Z,84.92
2023-05-06T04:19:39.381Z,84.93
2023-05-06T04:20:39.778Z,84.89
2023-05-06T04:21:39.912Z,84.85
2023-05-06T04:22:40.056Z,84.86
2023-05-06T04:23:39.307Z,84.94
2023-05-06T04:24:39.817Z,85.02
2023-05-06T04:25:40.545Z,85.08
2023-05-06T04:26:39.941Z,85.21
2023-05-06T04:27:39.980Z,85.29
2023-05-06T04:28:39.149Z,85.29
2023-05-06T04:29:39.346Z,85.28
2023-05-06T04:30:39.996Z,85.30
2023-05-06T04:31:40.134Z,85.36
2023-05-06T04:32:39.770Z,85.37
2023-05-06T04:33:40.021Z,85.42
2023-05-06T04:34:39.269Z,85.51
2023-05-06T04:35:39.555Z,85.53
2023-05-06T04:36:40.791Z,85.59
2023-05-06T04:37:39.717Z,85.72
2023-05-06T04:38:39.758Z,85.82
2023-05-06T04:39:40.006Z,85.94
2023-05-06T04:40:39.452Z,86.01
2023-05-06T04:41:39.450Z,86.09
2023-05-06T04:42:39.580Z,86.16
2023-05-06T04:43:39.704Z,86.27
2023-05-06T04:44:40.231Z,86.35
2023-05-06T04:45:40.173Z,86.45
2023-05-06T04:46:39.601Z,86.58
2023-05-06T04:47:40.118Z,86.64
2023-05-06T04:48:39.663Z,86.73
2023-05-06T04:49:40.267Z,86.79
2023-05-06T04:50:39.524Z,86.85
2023-05-06T04:51:40.483Z,86.90
2023-05-06T04:52:39.756Z,86.93
2023-05-06T04:53:40.085Z,86.98
2023-05-06T04:54:39.703Z,86.98
2023-05-06T04:55:40.487Z,87.00
2023-05-06T04:56:39.547Z,87.00
2023-05-06T04:57:39.925Z,87.14
2023-05-06T04:58:40.000Z,87.17
2023-05-06T04:59:39.182Z,87.19
2023-05-06T05:00:40.193Z,87.19
2023-05-06T05:01:39.681Z,87.25
2023-05-06T05:02:40.148Z,87.27
2023-05-06T05:03:39.717Z,87.30
2023-05-06T05:04:39.951Z,87.35
2023-05-06T05:05:40.371Z,87.42
2023-05-06T05:06:39.544Z,87.50
2023-05-06T05:07:39.979Z,87.55
2023-05-06T05:08:39.374Z,87.69
2023-05-06T05:09:39.627Z,87.71
2023-05-06T05:10:40.396Z,87.76
2023-05-06T05:11:39.592Z,87.86
2023-05-06T05:12:40.031Z,87.87
2023-05-06T05:13:39.406Z,87.96
2023-05-06T05:14:39.373Z,87.90
2023-05-06T05:15:39.506Z,87.69
2023-05-06T05:16:39.907Z,87.79
2023-05-06T05:17:40.128Z,87.75
2023-05-06T05:18:39.522Z,87.79
2023-05-06T05:19:39.925Z,87.87
2023-05-06T05:20:40.524Z,87.80
2023-05-06T05:22:11.315Z,87.72
2023-05-06T05:23:58.645Z,87.63
2023-05-06T05:24:40.136Z,87.48
2023-05-06T05:25:39.791Z,87.06
2023-05-06T05:26:39.964Z,86.58
2023-05-06T05:27:40.382Z,86.71
2023-05-06T05:28:40.223Z,86.76
2023-05-06T05:29:40.044Z,86.63
2023-05-06T05:30:39.790Z,86.76
2023-05-06T05:31:58.873Z,86.60
2023-05-06T05:32:40.268Z,86.61
2023-05-06T05:33:39.740Z,86.51
2023-05-06T05:34:40.119Z,86.35
2023-05-06T05:35:39.779Z,86.61
2023-05-06T05:36:40.384Z,86.43
2023-05-06T05:37:39.558Z,86.06
2023-05-06T05:38:39.755Z,85.94
2023-05-06T05:39:40.028Z,86.13
2023-05-06T05:40:39.749Z,86.25
2023-05-06T05:42:02.439Z,86.43
2023-05-06T05:42:40.162Z,86.44
2023-05-06T05:43:39.589Z,86.08
2023-05-06T05:44:39.969Z,85.89
2023-05-06T05:45:39.540Z,85.79
2023-05-06T05:46:39.998Z,85.83
2023-05-06T05:47:39.552Z,85.62
2023-05-06T05:48:40.075Z,85.53
2023-05-06T05:49:39.605Z,85.60
2023-05-06T05:50:40.192Z,85.91
2023-05-06T05:51:39.642Z,85.88
2023-05-06T05:52:40.077Z,85.85
2023-05-06T05:54:40.051Z,85.68
2023-05-06T05:55:39.988Z,85.81
2023-05-06T05:56:39.678Z,85.73
2023-05-06T05:57:40.847Z,85.62
2023-05-06T05:58:40.610Z,85.58
2023-05-06T05:59:40.282Z,85.47
2023-05-06T06:00:40.604Z,85.49
2023-05-06T06:01:40.058Z,85.19
2023-05-06T06:02:40.145Z,85.58
2023-05-06T06:03:40.195Z,85.83
2023-05-06T06:04:39.936Z,85.51
2023-05-06T06:05:40.432Z,85.91
2023-05-06T06:06:40.135Z,86.15
2023-05-06T06:07:40.173Z,86.24
2023-05-06T06:08:39.683Z,86.42
2023-05-06T06:09:40.052Z,86.47
2023-05-06T06:10:39.768Z,86.30
2023-05-06T06:11:40.277Z,85.87
2023-05-06T06:12:39.884Z,85.51
2023-05-06T06:13:44.046Z,85.14
2023-05-06T06:14:39.412Z,85.27
2023-05-06T06:15:40.397Z,85.11
2023-05-06T06:16:40.066Z,84.86
2023-05-06T06:17:39.624Z,84.63
2023-05-06T06:18:39.889Z,84.41
2023-05-06T06:19:40.103Z,84.50
2023-05-06T06:20:39.435Z,84.45
2023-05-06T06:21:39.860Z,84.26
2023-05-06T06:22:40.311Z,83.90
2023-05-06T06:23:39.578Z,83.38
2023-05-06T06:24:39.965Z,83.10
2023-05-06T06:25:40.288Z,82.81
2023-05-06T06:26:39.868Z,82.71
2023-05-06T06:27:40.256Z,82.55
2023-05-06T06:28:39.454Z,82.28
2023-05-06T06:29:39.651Z,81.95
2023-05-06T06:30:40.120Z,81.72
2023-05-06T06:31:40.645Z,81.77
2023-05-06T06:32:40.744Z,81.47
2023-05-06T06:33:40.012Z,81.00
2023-05-06T06:34:39.658Z,80.99
2023-05-06T06:35:40.088Z,80.97
2023-05-06T06:36:39.263Z,80.81
2023-05-06T06:37:39.865Z,80.50
2023-05-06T06:38:40.024Z,80.52
2023-05-06T06:39:39.544Z,80.53
2023-05-06T06:40:40.132Z,80.70
2023-05-06T06:41:39.718Z,80.68
2023-05-06T06:42:41.123Z,80.42
2023-05-06T06:43:39.667Z,80.17
2023-05-06T06:44:40.060Z,80.05
2023-05-06T06:45:40.223Z,80.06
2023-05-06T06:46:44.959Z,79.82
2023-05-06T06:47:40.670Z,79.68
2023-05-06T06:48:39.892Z,79.45
2023-05-06T06:49:40.064Z,79.01
2023-05-06T06:50:40.099Z,78.81
2023-05-06T06:51:39.495Z,78.48
2023-05-06T06:52:39.937Z,78.29
2023-05-06T06:53:40.133Z,78.34
2023-05-06T06:54:39.513Z,78.54
2023-05-06T06:55:40.063Z,78.44
2023-05-06T06:56:39.767Z,78.28
2023-05-06T06:57:40.449Z,78.08
2023-05-06T06:58:39.934Z,78.09
2023-05-06T06:59:40.305Z,78.20
2023-05-06T07:00:40.737Z,78.42
2023-05-06T07:01:40.644Z,78.38
2023-05-06T07:02:54.490Z,78.62
2023-05-06T07:03:39.542Z,78.40
2023-05-06T07:04:39.862Z,78.08
2023-05-06T07:05:40.308Z,78.34
2023-05-06T07:06:53.686Z,78.26
2023-05-06T07:07:40.212Z,77.82
2023-05-06T07:08:39.397Z,77.41
2023-05-06T07:09:44.633Z,77.07
2023-05-06T07:10:39.942Z,76.80
2023-05-06T07:11:40.009Z,76.57
2023-05-06T07:12:39.425Z,76.51
2023-05-06T07:13:39.838Z,76.64
2023-05-06T07:14:40.034Z,76.76
2023-05-06T07:15:39.482Z,76.84
2023-05-06T07:16:39.880Z,77.05
2023-05-06T07:17:40.201Z,77.14
2023-05-06T07:18:44.707Z,77.20
2023-05-06T07:19:40.199Z,77.28
2023-05-06T07:20:59.082Z,76.83
2023-05-06T07:21:39.766Z,75.70
2023-05-06T07:22:40.273Z,75.53
2023-05-06T07:23:39.914Z,75.31
2023-05-06T07:24:40.359Z,75.72
2023-05-06T07:25:40.046Z,75.66
2023-05-06T07:26:39.800Z,75.30
2023-05-06T07:27:40.110Z,74.96
2023-05-06T07:28:39.558Z,74.85
2023-05-06T07:29:39.894Z,74.57
2023-05-06T07:31:03.933Z,74.62
2023-05-06T07:31:40.848Z,74.74
2023-05-06T07:32:40.550Z,74.98
2023-05-06T07:33:39.967Z,75.25
2023-05-06T07:34:48.212Z,75.15
2023-05-06T07:35:39.614Z,75.07
2023-05-06T07:36:40.359Z,74.94
2023-05-06T07:37:39.701Z,74.73
2023-05-06T07:38:40.038Z,74.31
2023-05-06T07:39:39.556Z,73.93
2023-05-06T07:40:40.147Z,73.90
2023-05-06T07:41:39.429Z,74.12
2023-05-06T07:43:40.266Z,74.39
2023-05-06T07:44:39.907Z,74.5
2023-05-06T07:45:40.296Z,74.15
2023-05-06T07:46:39.709Z,73.90
2023-05-06T07:47:40.425Z,74.05
2023-05-06T07:48:54.055Z,74.36
2023-05-06T07:49:39.874Z,73.89
2023-05-06T07:51:12.143Z,73.84
2023-05-06T07:51:44.749Z,73.87
2023-05-06T07:52:59.401Z,73.94
2023-05-06T07:53:39.912Z,74.12
2023-05-06T07:54:40.079Z,74.38
2023-05-06T07:55:39.740Z,74.38
2023-05-06T07:56:40.361Z,73.98
2023-05-06T07:57:39.878Z,73.53
2023-05-06T07:58:39.965Z,73.12
2023-05-06T07:59:40.422Z,73.04
2023-05-06T08:00:40.635Z,73.10
2023-05-06T08:01:39.481Z,73.16
2023-05-06T08:02:39.762Z,73.51
2023-05-06T08:03:40.064Z,74.21
2023-05-06T08:05:01.544Z,74.14
2023-05-06T08:05:39.844Z,74.36
2023-05-06T08:06:39.816Z,74.30
2023-05-06T08:07:39.902Z,74.45
2023-05-06T08:09:02.188Z,74.44
2023-05-06T08:09:39.812Z,73.94
2023-05-06T08:10:40.163Z,73.77
2023-05-06T08:11:39.251Z,73.60
2023-05-06T08:12:39.496Z,73.48
2023-05-06T08:13:39.600Z,73.45
2023-05-06T08:14:39.528Z,73.60
2023-05-06T08:15:40.155Z,73.93
2023-05-06T08:16:41.023Z,73.84
2023-05-06T08:17:39.527Z,73.80
2023-05-06T08:18:39.320Z,73.52
2023-05-06T08:19:39.472Z,73.23
2023-05-06T08:20:39.950Z,73.13
2023-05-06T08:21:40.285Z,72.75
2023-05-06T08:22:39.909Z,72.78
2023-05-06T08:23:40.026Z,72.95
2023-05-06T08:24:39.846Z,72.76
2023-05-06T08:25:40.218Z,72.90
2023-05-06T08:26:39.589Z,72.83
2023-05-06T08:27:39.906Z,72.97
2023-05-06T08:28:41.015Z,73.01
2023-05-06T08:29:39.084Z,72.34
2023-05-06T08:30:39.723Z,71.79
2023-05-06T08:31:40.209Z,72
2023-05-06T08:32:39.643Z,72.44
2023-05-06T08:33:39.938Z,72.42
2023-05-06T08:34:40.250Z,72.41
2023-05-06T08:35:40.289Z,71.41
2023-05-06T08:36:39.849Z,70.75
2023-05-06T08:37:39.671Z,70.05
2023-05-06T08:38:40.010Z,70.05
2023-05-06T08:39:39.623Z,70.45
2023-05-06T08:40:40.097Z,69.84
2023-05-06T08:41:39.332Z,69.62
2023-05-06T08:42:39.642Z,68.75
2023-05-06T08:43:39.996Z,68.47
2023-05-06T08:44:39.674Z,69.08
2023-05-06T08:45:43.522Z,69.62
2023-05-06T08:46:40.356Z,69.83
2023-05-06T08:47:41.063Z,69.68
2023-05-06T08:48:40.109Z,69.43
2023-05-06T08:49:39.466Z,69.62
2023-05-06T08:50:40.582Z,68.58
2023-05-06T08:51:41.700Z,68.54
2023-05-06T08:52:40.209Z,68.96
2023-05-06T08:53:39.376Z,69.12
2023-05-06T08:54:40.068Z,68.98
2023-05-06T08:55:39.990Z,68.42
2023-05-06T08:56:39.301Z,68.54
2023-05-06T08:57:39.485Z,68.94
2023-05-06T08:58:39.956Z,69.08
2023-05-06T08:59:40.784Z,69.21
2023-05-06T09:00:41.675Z,69.65
2023-05-06T09:01:40.545Z,69.62
2023-05-06T09:02:43.054Z,69.33
2023-05-06T09:03:44.624Z,69.10
2023-05-06T09:04:39.628Z,69.24
2023-05-06T09:05:40.131Z,69.08
2023-05-06T09:06:39.516Z,69.02
2023-05-06T09:07:39.968Z,69.36
2023-05-06T09:08:39.413Z,69.58
2023-05-06T09:09:39.299Z,69.72
2023-05-06T09:10:39.828Z,69.83
2023-05-06T09:11:40.426Z,69.55
2023-05-06T09:12:39.754Z,68.83
2023-05-06T09:13:40.037Z,68.93
2023-05-06T09:14:39.527Z,69.33
2023-05-06T09:15:40.134Z,69.41
2023-05-06T09:16:39.917Z,68.97
2023-05-06T09:17:45.369Z,68.44
2023-05-06T09:18:40.013Z,68.46
2023-05-06T09:19:39.703Z,68.56
2023-05-06T09:20:40.287Z,68.69
2023-05-06T09:21:39.585Z,68.38
2023-05-06T09:22:40.611Z,67.74
2023-05-06T09:23:40.172Z,68.11
2023-05-06T09:24:39.676Z,68.34
2023-05-06T09:25:40.221Z,68.48
2023-05-06T09:26:39.773Z,68.56
2023-05-06T09:27:41.114Z,68.90
2023-05-06T09:28:39.276Z,69.25
2023-05-06T09:29:53.361Z,69.17
2023-05-06T09:30:40.252Z,69.48
2023-05-06T09:31:39.579Z,70.59
2023-05-06T09:32:40.576Z,71.73
2023-05-06T09:33:40.397Z,71.37
2023-05-06T09:34:39.733Z,70.37
2023-05-06T09:35:54.436Z,70.05
2023-05-06T09:36:40.253Z,70.63
2023-05-06T09:37:40.079Z,70.65
2023-05-06T09:38:39.671Z,70.48
2023-05-06T09:39:40.049Z,70.49
2023-05-06T09:40:39.690Z,69.83
2023-05-06T09:41:59.036Z,68.98
2023-05-06T09:42:39.532Z,68.86
2023-05-06T09:43:39.529Z,69.01
2023-05-06T09:44:39.897Z,69.22
2023-05-06T09:45:59.968Z,69.38
2023-05-06T09:46:40.788Z,69.74
2023-05-06T09:47:40.612Z,69.74
2023-05-06T09:48:39.891Z,69.70
2023-05-06T09:49:40.291Z,69.76
2023-05-06T09:50:40.376Z,69.76
2023-05-06T09:51:39.813Z,69.87
2023-05-06T09:52:40.235Z,69.86
2023-05-06T09:53:40.163Z,70.00
2023-05-06T09:54:39.794Z,69.90
2023-05-06T09:55:40.424Z,69.56
2023-05-06T09:56:40.254Z,69.45
2023-05-06T09:57:40.175Z,69.40
2023-05-06T09:58:40.133Z,69
2023-05-06T09:59:39.991Z,68.72
2023-05-06T10:00:40.914Z,68.72
2023-05-06T10:01:51.918Z,68.81
2023-05-06T10:02:40.832Z,68.79
2023-05-06T10:03:39.811Z,68.72
2023-05-06T10:04:42.704Z,68.83
2023-05-06T10:05:40.530Z,68.89
2023-05-06T10:06:40.210Z,69.04
2023-05-06T10:07:39.587Z,69.14
2023-05-06T10:08:40.240Z,69.27
2023-05-06T10:10:12.110Z,69.19
2023-05-06T10:10:44.979Z,69.21
2023-05-06T10:11:40.312Z,69.30
2023-05-06T10:12:39.902Z,69.56
2023-05-06T10:13:40.731Z,70.06
2023-05-06T10:14:40.468Z,70.12
2023-05-06T10:15:54.630Z,70.02
2023-05-06T10:16:40.346Z,69.91
2023-05-06T10:17:39.826Z,69.84
2023-05-06T10:18:40.115Z,69.65
2023-05-06T10:19:39.646Z,69.60
2023-05-06T10:20:40.385Z,69.70
2023-05-06T10:21:39.860Z,69.84
2023-05-06T10:22:40.640Z,69.90
2023-05-06T10:23:39.781Z,69.74
2023-05-06T10:24:40.405Z,69.43
2023-05-06T10:25:39.989Z,69.18
2023-05-06T10:26:39.688Z,69.15
2023-05-06T10:27:40.064Z,69.06
2023-05-06T10:28:47.473Z,69.22
2023-05-06T10:29:40.390Z,69.48
2023-05-06T10:30:40.385Z,69.24
2023-05-06T10:31:40.127Z,68.98
2023-05-06T10:32:40.251Z,68.85
2023-05-06T10:34:02.001Z,68.89
2023-05-06T10:34:39.636Z,68.76
2023-05-06T10:35:40.479Z,68.70
2023-05-06T10:36:40.749Z,68.92
2023-05-06T10:37:40.578Z,69.19
2023-05-06T10:38:39.897Z,69.40
2023-05-06T10:39:42.134Z,69.31
2023-05-06T10:40:39.802Z,69.08
2023-05-06T10:41:40.165Z,69.01
2023-05-06T10:42:39.589Z,68.97
2023-05-06T10:44:39.937Z,68.98
2023-05-06T10:45:40.460Z,68.51
2023-05-06T10:46:39.691Z,68.18
2023-05-06T10:47:40.245Z,67.97
2023-05-06T10:48:39.599Z,68.14
2023-05-06T10:49:39.967Z,68.31
2023-05-06T10:50:40.493Z,68.54
2023-05-06T10:51:39.916Z,68.67
2023-05-06T10:52:40.325Z,68.81
2023-05-06T10:53:39.912Z,68.93
2023-05-06T10:54:40.425Z,68.80
2023-05-06T10:55:40.141Z,68.44
2023-05-06T10:56:39.445Z,68.39
2023-05-06T10:57:39.604Z,68.61
2023-05-06T10:58:40.077Z,68.75
2023-05-06T10:59:39.780Z,68.90
2023-05-06T11:00:40.829Z,68.93
2023-05-06T11:01:40.276Z,69.36
2023-05-06T11:02:40.154Z,69.54
2023-05-06T11:03:40.149Z,69.64
2023-05-06T11:04:39.943Z,69.47
2023-05-06T11:05:40.456Z,69.27
2023-05-06T11:06:39.787Z,69.20
2023-05-06T11:07:40.051Z,68.84
2023-05-06T11:08:40.032Z,68.76
2023-05-06T11:09:39.396Z,68.99
2023-05-06T11:10:39.558Z,68.55
2023-05-06T11:11:39.509Z,68.01
2023-05-06T11:12:39.630Z,67.63
2023-05-06T11:13:39.951Z,67.37
2023-05-06T11:14:39.948Z,67.45
2023-05-06T11:15:40.509Z,67.04
2023-05-06T11:16:39.665Z,66.69
2023-05-06T11:17:39.951Z,66.26
2023-05-06T11:18:40.218Z,65.83
2023-05-06T11:19:39.249Z,65.77
2023-05-06T11:20:39.809Z,65.88
2023-05-06T11:21:40.267Z,65.87
2023-05-06T11:22:39.367Z,65.63
2023-05-06T11:23:39.633Z,65.71
2023-05-06T11:24:39.969Z,65.80
2023-05-06T11:25:39.509Z,65.66
2023-05-06T11:26:39.523Z,65.56
2023-05-06T11:27:39.617Z,65.09
2023-05-06T11:28:39.832Z,64.43
2023-05-06T11:29:39.958Z,64.18
2023-05-06T11:30:40.281Z,63.87
2023-05-06T11:31:39.315Z,63.87
2023-05-06T11:32:39.820Z,64.20
2023-05-06T11:33:39.922Z,64.49
2023-05-06T11:34:40.162Z,64.80
2023-05-06T11:35:39.709Z,64.73
2023-05-06T11:36:40.155Z,64.81
2023-05-06T11:37:39.348Z,64.68
2023-05-06T11:38:39.638Z,64.68
2023-05-06T11:39:41.009Z,64.38
2023-05-06T11:40:39.612Z,64.49
2023-05-06T11:41:39.712Z,64.77
2023-05-06T11:42:45.004Z,64.79
2023-05-06T11:43:39.689Z,64.56
2023-05-06T11:44:39.965Z,64.15
2023-05-06T11:45:39.579Z,64.06
2023-05-06T11:46:40.031Z,64.23
2023-05-06T11:47:40.094Z,63.68
2023-05-06T11:48:39.304Z,63.65
2023-05-06T11:49:39.600Z,63.82
2023-05-06T11:50:39.599Z,64.08
2023-05-06T11:51:39.857Z,64.16
2023-05-06T11:52:39.936Z,64.32
2023-05-06T11:53:40.556Z,64.37
2023-05-06T11:54:39.981Z,64.60
2023-05-06T11:55:39.938Z,64.81
2023-05-06T11:56:40.349Z,64.58
2023-05-06T11:57:39.709Z,63.70
2023-05-06T11:58:40.404Z,63.18
2023-05-06T11:59:39.407Z,62.94
2023-05-06T12:00:40.499Z,62.92
2023-05-06T12:01:39.927Z,63.16
2023-05-06T12:02:40.340Z,63.42
2023-05-06T12:03:39.757Z,63.72
2023-05-06T12:04:40.475Z,63.95
2023-05-06T12:05:40.288Z,64.06
2023-05-06T12:06:40.241Z,64.18
2023-05-06T12:07:39.552Z,64.13
2023-05-06T12:08:43.840Z,64.01
2023-05-06T12:09:40.029Z,63.67
2023-05-06T12:10:58.533Z,63.77
2023-05-06T12:11:39.858Z,63.75
2023-05-06T12:12:45.317Z,63.47
2023-05-06T12:13:40.174Z,63.33
2023-05-06T12:14:44.825Z,63.43
2023-05-06T12:15:40.410Z,63.46
2023-05-06T12:16:40.134Z,63.25
2023-05-06T12:17:39.449Z,63.33
2023-05-06T12:18:39.746Z,63.31
2023-05-06T12:19:39.900Z,63.21
2023-05-06T12:20:48.163Z,63.21
2023-05-06T12:21:39.541Z,63.30
2023-05-06T12:22:39.973Z,63.38
2023-05-06T12:23:39.730Z,62.52
2023-05-06T12:24:40.341Z,62.35
2023-05-06T12:25:40.602Z,62.51
2023-05-06T12:26:48.703Z,62.91
2023-05-06T12:27:40.311Z,63.10
2023-05-06T12:28:39.464Z,63.14
2023-05-06T12:29:39.654Z,63.18
2023-05-06T12:30:54.281Z,62.96
2023-05-06T12:31:39.891Z,62.52
2023-05-06T12:33:11.809Z,62.31
2023-05-06T12:33:44.552Z,62.47
2023-05-06T12:35:11.431Z,62.68
2023-05-06T12:35:44.272Z,62.92
2023-05-06T12:36:53.445Z,63.33
2023-05-06T12:37:39.640Z,63.56
2023-05-06T12:38:40.067Z,63.59
2023-05-06T12:39:39.727Z,63.57
2023-05-06T12:40:40.067Z,63.48
2023-05-06T12:41:39.236Z,63.45
2023-05-06T12:42:39.661Z,63.43
2023-05-06T12:43:39.839Z,63.43
2023-05-06T12:45:11.606Z,63.36
2023-05-06T12:45:44.857Z,63.21
2023-05-06T12:46:40.965Z,63.30
2023-05-06T12:47:40.876Z,63.45
2023-05-06T12:48:40.312Z,63.59
2023-05-06T12:49:40.104Z,63.75
2023-05-06T12:50:39.900Z,64.22
2023-05-06T12:51:40.311Z,64.26
2023-05-06T12:52:40.078Z,64.35
2023-05-06T12:53:39.677Z,64.73
2023-05-06T12:54:39.844Z,65.54
2023-05-06T12:55:40.247Z,65.54
2023-05-06T12:56:39.657Z,65.76
2023-05-06T12:57:40.101Z,65.11
2023-05-06T12:58:39.238Z,65.23